KCDWKTTN

Guest
Details From KCDW - Essex County
To KTTN - Trenton Mercer
Flight Number -
Tags generated
Created
Modified
Stats Distance 43 nm / 80 km
Max Altitude 2,300 ft / 701 m
Waypoints 3
Social Downloads 1
Likes 0
Share VATSIM

Download

Looking for another format? Having issues loading an existing format? Contact us
Advertisement - Login to hide

Notes

Basic altitude profile: - Ascent Rate: 700ft/min - Ascent Speed: 80kts - Cruise Altitude: 3000ft - Cruise Speed: 115kts - Descent Rate: 800ft/min - Descent Speed: 70kts Options: - Use NATs: yes - Use PACOTS: yes - Use low airways: yes - Use high airways: yes

Route

KCDW METRO KTTN

ID Type Via Altitude Latitude Longitude Leg Dist Tot Dist Heading (true) Name
O KCDW APT - 0 ft / 0 m 40.87547˚ -74.28122˚ - 0 nm - Essex County
METRO FIX - 2,300 ft / 701 m 40.42271˚ -74.66953˚ 32 nm 32 nm 213° / 213° -
O KTTN APT - 0 ft / 0 m 40.27685˚ -74.81345˚ 10 nm 43 nm 217° / 217° Trenton Mercer

Altitude Profile

Advertisement - Login to hide

KCDW

Details ICAO KCDW (CDW)
Name Essex County
Region United States
Timezone America/New_York (UTC-5.0)
Stats Elevation 172 ft / 52 m (AMSL)
Location 40.875473° -74.281219°
Runways 2
Magnetic Variation 12.796° W

METAR

KCDW 162253Z 24003KT 10SM OVC055 02/M04 A3006 RMK AO2 SLP187 T00221044

Decode

TAF

Not found

Departure Runways

ID Width Length Bearing (true) Bearing (mag) Surface Threshold Offset Overrun Length
04 82 ft / 25 m 4,580 ft / 1,396 m 29.48° 42.28° Asphalt 381 ft / 116 m 0 ft / 0 m
10 82 ft / 25 m 3,701 ft / 1,128 m 83.19° 95.99° Asphalt 164 ft / 50 m 0 ft / 0 m
22 82 ft / 25 m 4,580 ft / 1,396 m 209.49° 222.29° Asphalt 161 ft / 49 m 0 ft / 0 m
28 82 ft / 25 m 3,701 ft / 1,128 m 263.20° 276.00° Asphalt 820 ft / 250 m 0 ft / 0 m

KTTN

Details ICAO KTTN (TTN)
Name Trenton Mercer
Region United States
Timezone America/New_York (UTC-5.0)
Stats Elevation 213 ft / 65 m (AMSL)
Location 40.276853° -74.813447°
Runways 2
Magnetic Variation 12.379° W

METAR

KTTN 162253Z 25004KT 10SM OVC065 04/M04 A3007 RMK AO2 SLP180 T00391044

Decode

TAF

KTTN 162337Z 1700/1724 26005KT P6SM BKN060 FM170200 33004KT P6SM BKN040 FM171400 04004KT P6SM SCT025 BKN035

Decode

Destination Runways

ID Width Length Bearing (true) Bearing (mag) Surface Threshold Offset Overrun Length
06 151 ft / 46 m 6,004 ft / 1,830 m 46.36° 58.74° Asphalt 0 ft / 0 m 0 ft / 0 m
16 151 ft / 46 m 4,802 ft / 1,464 m 145.77° 158.15° Asphalt 0 ft / 0 m 0 ft / 0 m
24 151 ft / 46 m 6,004 ft / 1,830 m 226.37° 238.75° Asphalt 0 ft / 0 m 0 ft / 0 m
34 151 ft / 46 m 4,802 ft / 1,464 m 325.77° 338.15° Asphalt 0 ft / 0 m 0 ft / 0 m

Approach Navaids

Runway Type Ident Frequency Range Bearing (true) Bearing (mag) Slope Elevation
06 Localiser ITTN 111.30 MHz 18 nm / 33 km 46.37° 58.75° - 187 ft / 57 m (AMSL)
06 Glidescope ITTN 111.30 MHz 10 nm / 19 km 46.37° 58.75° 3.00° 167 ft / 51 m (AMSL)